createdAt,value
2018-08-30T09:09:06.762Z,1005.28
2018-08-30T09:10:08.135Z,1005.27
2018-08-30T09:11:09.525Z,1005.27
2018-08-30T09:12:10.908Z,1005.33
2018-08-30T09:13:12.293Z,1005.31
2018-08-30T09:14:13.669Z,1005.31
2018-08-30T09:15:15.065Z,1005.32
2018-08-30T09:16:16.447Z,1005.32
2018-08-30T09:17:17.837Z,1005.32
2018-08-30T09:18:19.237Z,1005.33
2018-08-30T09:19:20.623Z,1005.39
2018-08-30T09:20:22.023Z,1005.35
2018-08-30T09:21:23.397Z,1005.37
2018-08-30T09:22:24.777Z,1005.38
2018-08-30T09:23:26.162Z,1005.38
2018-08-30T09:24:27.552Z,1005.38
2018-08-30T09:25:28.946Z,1005.36
2018-08-30T09:26:30.336Z,1005.36
2018-08-30T09:27:31.730Z,1005.31
2018-08-30T09:28:33.121Z,1005.32
2018-08-30T09:29:34.500Z,1005.31
2018-08-30T09:30:35.900Z,1005.28
2018-08-30T09:31:37.298Z,1005.30
2018-08-30T09:32:38.686Z,1005.34
2018-08-30T09:33:40.077Z,1005.32
2018-08-30T09:34:41.473Z,1005.36
2018-08-30T09:35:42.863Z,1005.31
2018-08-30T09:36:44.251Z,1005.30
2018-08-30T09:37:45.642Z,1005.32
2018-08-30T09:38:47.026Z,1005.31
2018-08-30T09:39:48.423Z,1005.29
2018-08-30T09:40:49.815Z,1005.34
2018-08-30T09:41:51.207Z,1005.35
2018-08-30T09:42:52.633Z,1005.36
2018-08-30T09:43:54.120Z,1005.37
2018-08-30T09:44:55.398Z,1005.36
2018-08-30T09:45:56.791Z,1005.34
2018-08-30T09:46:58.183Z,1005.37
2018-08-30T09:47:59.570Z,1005.38
2018-08-30T09:49:00.957Z,1005.38
2018-08-30T09:50:02.370Z,1005.39
2018-08-30T09:51:03.744Z,1005.38
2018-08-30T09:52:05.140Z,1005.42
2018-08-30T09:53:06.529Z,1005.38
2018-08-30T09:54:07.919Z,1005.43
2018-08-30T09:55:09.322Z,1005.39
2018-08-30T09:56:10.706Z,1005.39
2018-08-30T09:57:12.185Z,1005.45
2018-08-30T09:58:13.443Z,1005.44
2018-08-30T09:59:14.818Z,1005.48
2018-08-30T10:00:16.213Z,1005.47
2018-08-30T10:01:17.604Z,1005.48
2018-08-30T10:02:18.988Z,1005.44
2018-08-30T10:03:20.389Z,1005.46
2018-08-30T10:04:21.775Z,1005.47
2018-08-30T10:05:23.167Z,1005.45
2018-08-30T10:06:24.547Z,1005.43
2018-08-30T10:07:25.932Z,1005.47
2018-08-30T10:08:27.336Z,1005.53
2018-08-30T10:09:28.745Z,1005.50
2018-08-30T10:10:30.170Z,1005.52
2018-08-30T10:11:31.559Z,1005.52
2018-08-30T10:12:32.938Z,1005.57
2018-08-30T10:13:34.337Z,1005.54
2018-08-30T10:14:35.712Z,1005.53
2018-08-30T10:15:37.115Z,1005.57
2018-08-30T10:16:38.509Z,1005.55
2018-08-30T10:17:39.887Z,1005.53
2018-08-30T10:18:41.289Z,1005.50
2018-08-30T10:19:42.673Z,1005.58
2018-08-30T10:20:44.058Z,1005.55
2018-08-30T10:21:45.452Z,1005.57
2018-08-30T10:22:46.843Z,1005.61
2018-08-30T10:23:48.235Z,1005.62
2018-08-30T10:24:49.616Z,1005.62
2018-08-30T10:25:51.023Z,1005.62
2018-08-30T10:26:52.425Z,1005.61
2018-08-30T10:27:53.824Z,1005.60
2018-08-30T10:28:55.215Z,1005.63
2018-08-30T10:29:56.601Z,1005.64
2018-08-30T10:30:57.992Z,1005.64
2018-08-30T10:31:59.377Z,1005.68
2018-08-30T10:33:00.773Z,1005.65
2018-08-30T10:34:02.155Z,1005.67
2018-08-30T10:35:04.392Z,1005.68
2018-08-30T10:36:05.780Z,1005.67
2018-08-30T10:37:07.308Z,1005.66
2018-08-30T10:38:08.557Z,1005.71
2018-08-30T10:39:09.947Z,1005.69
2018-08-30T10:40:11.333Z,1005.66
2018-08-30T10:41:12.728Z,1005.67
2018-08-30T10:42:14.110Z,1005.70
2018-08-30T10:43:15.515Z,1005.74
2018-08-30T10:44:16.936Z,1005.71
2018-08-30T10:45:18.315Z,1005.72
2018-08-30T10:46:19.705Z,1005.77
2018-08-30T10:47:21.110Z,1005.82
2018-08-30T10:48:22.498Z,1005.81
2018-08-30T10:49:23.968Z,1005.80
2018-08-30T10:50:25.259Z,1005.77
2018-08-30T10:51:26.661Z,1005.82
2018-08-30T10:52:28.058Z,1005.92
2018-08-30T10:53:29.450Z,1005.87
2018-08-30T10:54:30.847Z,1005.93
2018-08-30T10:55:32.222Z,1005.91
2018-08-30T10:56:33.625Z,1005.93
2018-08-30T10:57:35.016Z,1005.91
2018-08-30T10:58:36.406Z,1005.88
2018-08-30T10:59:37.800Z,1005.91
2018-08-30T11:00:39.209Z,1005.93
2018-08-30T11:01:40.588Z,1005.91
2018-08-30T11:02:41.976Z,1005.89
2018-08-30T11:03:43.372Z,1005.90
2018-08-30T11:04:44.761Z,1005.90
2018-08-30T11:05:46.151Z,1005.89
2018-08-30T11:06:47.551Z,1005.91
2018-08-30T11:07:48.933Z,1005.86
2018-08-30T11:08:50.321Z,1005.84
2018-08-30T11:09:51.754Z,1005.91
2018-08-30T11:10:53.090Z,1005.89
2018-08-30T11:11:54.488Z,1005.86
2018-08-30T11:12:55.907Z,1005.87
2018-08-30T11:13:57.269Z,1005.89
2018-08-30T11:14:58.655Z,1005.86
2018-08-30T11:16:00.044Z,1005.88
2018-08-30T11:17:01.436Z,1005.93
2018-08-30T11:18:02.822Z,1005.87
2018-08-30T11:19:04.215Z,1005.88
2018-08-30T11:20:05.608Z,1005.91
2018-08-30T11:21:06.995Z,1005.91
2018-08-30T11:22:08.385Z,1005.92
2018-08-30T11:23:09.773Z,1005.95
2018-08-30T11:24:11.174Z,1005.91
2018-08-30T11:25:12.555Z,1005.94
2018-08-30T11:26:13.945Z,1005.95
2018-08-30T11:27:15.328Z,1005.94
2018-08-30T11:28:16.720Z,1005.98
2018-08-30T11:29:18.106Z,1005.99
2018-08-30T11:30:19.493Z,1005.97
2018-08-30T11:31:20.885Z,1006.01
2018-08-30T11:32:22.276Z,1006.01
2018-08-30T11:33:23.665Z,1006.03
2018-08-30T11:34:25.060Z,1006.03
2018-08-30T11:35:26.449Z,1006.00
2018-08-30T11:36:27.839Z,1006.01
2018-08-30T11:37:29.252Z,1006.02
2018-08-30T11:38:30.608Z,1005.99
2018-08-30T11:39:32.021Z,1006.01
2018-08-30T11:40:33.400Z,1006.04
2018-08-30T11:41:34.968Z,1006.01
2018-08-30T11:42:36.162Z,1006.05
2018-08-30T11:43:37.564Z,1006.07
2018-08-30T11:44:39.756Z,1006.03
2018-08-30T11:45:41.150Z,1006.05
2018-08-30T11:46:42.544Z,1006.05
2018-08-30T11:47:43.934Z,1006.02
2018-08-30T11:48:45.338Z,1006.05
2018-08-30T11:49:46.716Z,1006.04
2018-08-30T11:50:48.118Z,1006.03
2018-08-30T11:51:49.528Z,1006.03
2018-08-30T11:52:50.900Z,1005.97
2018-08-30T11:53:52.292Z,1006.00
2018-08-30T11:54:53.674Z,1006.01
2018-08-30T11:55:55.066Z,1006.04
2018-08-30T11:56:56.466Z,1006.06
2018-08-30T11:57:57.851Z,1006.06
2018-08-30T11:58:59.243Z,1006.10
2018-08-30T12:00:00.648Z,1006.08
2018-08-30T12:01:02.045Z,1006.06
2018-08-30T12:02:03.431Z,1006.07
2018-08-30T12:03:04.826Z,1006.05
2018-08-30T12:04:06.206Z,1006.09
2018-08-30T12:05:07.604Z,1006.05
2018-08-30T12:06:09.000Z,1006.07
2018-08-30T12:07:10.358Z,1006.06
2018-08-30T12:08:11.760Z,1006.08
2018-08-30T12:09:13.162Z,1006.08
2018-08-30T12:10:15.397Z,1006.08
2018-08-30T12:11:16.724Z,1006.10
2018-08-30T12:12:18.095Z,1006.09
2018-08-30T12:13:19.488Z,1006.11
2018-08-30T12:14:20.878Z,1006.14
2018-08-30T12:15:22.282Z,1006.07
2018-08-30T12:16:23.669Z,1006.01
2018-08-30T12:17:25.056Z,1006.01
2018-08-30T12:18:26.466Z,1006.03
2018-08-30T12:19:27.853Z,1006.07
2018-08-30T12:20:29.256Z,1006.04
2018-08-30T12:21:30.635Z,1006.08
2018-08-30T12:22:32.065Z,1006.13
2018-08-30T12:23:33.446Z,1006.12
2018-08-30T12:24:34.870Z,1006.14
2018-08-30T12:25:36.228Z,1006.15
2018-08-30T12:26:38.483Z,1006.11
2018-08-30T12:27:39.895Z,1006.18
2018-08-30T12:28:41.311Z,1006.18
2018-08-30T12:29:42.677Z,1006.15
2018-08-30T12:30:44.091Z,1006.17
2018-08-30T12:31:51.193Z,1006.16
2018-08-30T12:32:53.409Z,1006.17
2018-08-30T12:33:54.854Z,1006.19
2018-08-30T12:34:56.290Z,1006.18
2018-08-30T12:35:57.723Z,1006.19
2018-08-30T12:36:59.036Z,1006.19
2018-08-30T12:38:00.439Z,1006.18
2018-08-30T12:39:01.855Z,1006.17
2018-08-30T12:40:03.303Z,1006.18
2018-08-30T12:41:04.772Z,1006.15
2018-08-30T12:42:06.068Z,1006.19
2018-08-30T12:43:07.489Z,1006.18
2018-08-30T12:44:08.892Z,1006.20
2018-08-30T12:45:10.326Z,1006.19
2018-08-30T12:46:11.776Z,1006.22
2018-08-30T12:47:13.210Z,1006.19
2018-08-30T12:48:14.688Z,1006.18
2018-08-30T12:49:16.145Z,1006.17
2018-08-30T12:50:17.790Z,1006.15
2018-08-30T12:51:19.224Z,1006.15
2018-08-30T12:52:20.529Z,1006.18
2018-08-30T12:53:22.047Z,1006.14
2018-08-30T12:54:23.480Z,1006.14
2018-08-30T12:55:24.851Z,1006.15
2018-08-30T12:56:26.239Z,1006.14
2018-08-30T12:57:27.631Z,1006.15
2018-08-30T12:58:29.183Z,1006.18
2018-08-30T12:59:30.435Z,1006.16
2018-08-30T13:00:31.810Z,1006.13
2018-08-30T13:01:33.161Z,1006.13
2018-08-30T13:02:34.628Z,1006.13
2018-08-30T13:03:35.979Z,1006.14
2018-08-30T13:04:37.520Z,1006.14
2018-08-30T13:05:38.834Z,1006.09
2018-08-30T13:06:40.076Z,1006.09
2018-08-30T13:07:41.518Z,1006.13
2018-08-30T13:08:42.980Z,1006.09
2018-08-30T13:09:44.287Z,1006.11
2018-08-30T13:10:45.761Z,1006.09
2018-08-30T13:11:47.094Z,1006.06
2018-08-30T13:12:48.437Z,1006.08
2018-08-30T13:13:49.837Z,1006.10
2018-08-30T13:14:51.341Z,1006.09
2018-08-30T13:15:52.683Z,1006.08
2018-08-30T13:16:54.089Z,1006.08
2018-08-30T13:17:55.415Z,1006.11
2018-08-30T13:18:56.788Z,1006.12
2018-08-30T13:19:58.174Z,1006.11
2018-08-30T13:20:59.529Z,1006.09
2018-08-30T13:22:01.066Z,1006.08
2018-08-30T13:23:02.405Z,1006.07
2018-08-30T13:24:03.724Z,1006.05
2018-08-30T13:25:05.280Z,1006.06
2018-08-30T13:26:06.572Z,1006.10
2018-08-30T13:27:07.924Z,1006.05
2018-08-30T13:28:09.315Z,1006.12
2018-08-30T13:29:10.660Z,1006.16
2018-08-30T13:30:12.319Z,1006.20
2018-08-30T13:31:13.505Z,1006.17
2018-08-30T13:32:14.980Z,1006.14
2018-08-30T13:33:19.909Z,1006.14
2018-08-30T13:34:17.786Z,1006.18
2018-08-30T13:35:19.236Z,1006.19
2018-08-30T13:36:20.358Z,1006.16
2018-08-30T13:37:21.802Z,1006.20
2018-08-30T13:38:23.280Z,1006.17
2018-08-30T13:39:24.908Z,1006.22
2018-08-30T13:40:26.036Z,1006.22
2018-08-30T13:41:27.373Z,1006.21
2018-08-30T13:42:28.870Z,1006.16
2018-08-30T13:43:30.131Z,1006.18
2018-08-30T13:44:31.724Z,1006.15
2018-08-30T13:45:32.991Z,1006.18
2018-08-30T13:46:34.158Z,1006.19
2018-08-30T13:47:35.629Z,1006.18
2018-08-30T13:48:36.992Z,1006.24
2018-08-30T13:49:38.213Z,1006.20
2018-08-30T13:50:39.779Z,1006.22
2018-08-30T13:51:41.233Z,1006.26
2018-08-30T13:52:42.667Z,1006.29
2018-08-30T13:53:43.759Z,1006.34
2018-08-30T13:54:45.185Z,1006.32
2018-08-30T13:55:46.538Z,1006.38
2018-08-30T13:56:48.151Z,1006.40
2018-08-30T13:57:49.489Z,1006.41
2018-08-30T13:58:50.959Z,1006.43
2018-08-30T13:59:52.312Z,1006.46
2018-08-30T14:00:53.569Z,1006.43
2018-08-30T14:01:54.850Z,1006.46
2018-08-30T14:02:56.348Z,1006.48
2018-08-30T14:03:57.614Z,1006.45
2018-08-30T14:04:58.943Z,1006.45
2018-08-30T14:06:00.409Z,1006.45
2018-08-30T14:07:01.758Z,1006.43
2018-08-30T14:08:03.129Z,1006.45
2018-08-30T14:09:04.529Z,1006.41
2018-08-30T14:10:05.987Z,1006.46
2018-08-30T14:11:07.492Z,1006.42
2018-08-30T14:12:08.926Z,1006.50
2018-08-30T14:13:10.049Z,1006.48
2018-08-30T14:14:11.519Z,1006.46
2018-08-30T14:15:12.918Z,1006.52
2018-08-30T14:16:13.906Z,1006.54
2018-08-30T14:17:15.302Z,1006.53
2018-08-30T14:18:16.706Z,1006.56
2018-08-30T14:19:18.114Z,1006.54
2018-08-30T14:20:20.000Z,1006.54
2018-08-30T14:21:21.405Z,1006.55
2018-08-30T14:22:22.794Z,1006.53
2018-08-30T14:23:24.187Z,1006.55
2018-08-30T14:24:25.668Z,1006.58
2018-08-30T14:25:27.002Z,1006.55
2018-08-30T14:26:28.317Z,1006.56
2018-08-30T14:27:33.344Z,1006.58
2018-08-30T14:28:34.733Z,1006.59
2018-08-30T14:29:36.164Z,1006.59
2018-08-30T14:30:37.524Z,1006.61
2018-08-30T14:31:38.930Z,1006.58
2018-08-30T14:32:40.354Z,1006.64
2018-08-30T14:33:41.771Z,1006.63
2018-08-30T14:34:43.056Z,1006.62
2018-08-30T14:35:45.325Z,1006.62
2018-08-30T14:36:46.660Z,1006.62
2018-08-30T14:37:48.009Z,1006.66
2018-08-30T14:38:49.446Z,1006.67
2018-08-30T14:39:50.827Z,1006.63
2018-08-30T14:40:52.280Z,1006.60
2018-08-30T14:41:53.606Z,1006.59
2018-08-30T14:42:54.911Z,1006.56
2018-08-30T14:43:56.302Z,1006.53
2018-08-30T14:44:57.725Z,1006.52
2018-08-30T14:45:59.045Z,1006.54
2018-08-30T14:47:00.491Z,1006.58
2018-08-30T14:48:01.935Z,1006.57
2018-08-30T14:49:03.100Z,1006.60
2018-08-30T14:50:04.457Z,1006.66
2018-08-30T14:51:05.813Z,1006.66
2018-08-30T14:52:07.162Z,1006.65
2018-08-30T14:53:08.705Z,1006.72
2018-08-30T14:54:10.019Z,1006.68
2018-08-30T14:55:11.286Z,1006.67
2018-08-30T14:56:12.684Z,1006.67
2018-08-30T14:57:14.028Z,1006.65
2018-08-30T14:58:15.377Z,1006.62
2018-08-30T14:59:16.819Z,1006.61
2018-08-30T15:00:18.163Z,1006.61
2018-08-30T15:01:19.477Z,1006.61
2018-08-30T15:02:20.875Z,1006.64
2018-08-30T15:03:22.227Z,1006.68
2018-08-30T15:04:23.647Z,1006.70
2018-08-30T15:05:25.095Z,1006.73
2018-08-30T15:06:26.495Z,1006.71
2018-08-30T15:07:27.845Z,1006.74
2018-08-30T15:08:29.217Z,1006.71
2018-08-30T15:09:30.621Z,1006.73
2018-08-30T15:10:32.016Z,1006.70
2018-08-30T15:11:33.475Z,1006.73
2018-08-30T15:12:41.816Z,1006.72
2018-08-30T15:13:42.136Z,1006.73
2018-08-30T15:14:43.539Z,1006.69
2018-08-30T15:15:44.934Z,1006.73
2018-08-30T15:16:46.322Z,1006.69
2018-08-30T15:17:48.693Z,1006.74
2018-08-30T15:18:50.120Z,1006.73
2018-08-30T15:19:51.545Z,1006.74
2018-08-30T15:20:52.916Z,1006.76
2018-08-30T15:21:54.279Z,1006.72
2018-08-30T15:22:55.723Z,1006.75
2018-08-30T15:23:56.974Z,1006.75
2018-08-30T15:24:58.357Z,1006.73
2018-08-30T15:25:59.756Z,1006.71
2018-08-30T15:27:01.249Z,1006.71
2018-08-30T15:28:02.539Z,1006.71
2018-08-30T15:29:03.929Z,1006.70
2018-08-30T15:30:05.280Z,1006.65
2018-08-30T15:31:06.718Z,1006.70
2018-08-30T15:32:08.060Z,1006.71
2018-08-30T15:33:09.455Z,1006.74
2018-08-30T15:34:10.846Z,1006.77
2018-08-30T15:35:12.233Z,1006.79
2018-08-30T15:36:13.599Z,1006.79
2018-08-30T15:37:15.078Z,1006.77
2018-08-30T15:38:16.460Z,1006.77
2018-08-30T15:39:17.854Z,1006.77
2018-08-30T15:40:19.230Z,1006.78
2018-08-30T15:41:20.780Z,1006.75
2018-08-30T15:42:27.475Z,1006.77
2018-08-30T15:43:28.633Z,1006.80
2018-08-30T15:44:30.062Z,1006.82
2018-08-30T15:45:31.552Z,1006.81
2018-08-30T15:46:32.908Z,1006.83
2018-08-30T15:47:34.262Z,1006.80
2018-08-30T15:48:35.712Z,1006.78
2018-08-30T15:49:37.061Z,1006.81
2018-08-30T15:50:38.458Z,1006.85
2018-08-30T15:51:39.859Z,1006.86
2018-08-30T15:52:41.316Z,1006.82
2018-08-30T15:53:42.714Z,1006.86
2018-08-30T15:54:44.115Z,1006.84
2018-08-30T15:55:45.510Z,1006.86
2018-08-30T15:56:46.938Z,1006.83
2018-08-30T15:57:48.279Z,1006.89
2018-08-30T15:58:49.693Z,1006.89
2018-08-30T15:59:51.049Z,1006.87
2018-08-30T16:00:52.454Z,1006.88
2018-08-30T16:01:53.808Z,1006.95
2018-08-30T16:02:55.454Z,1006.97
2018-08-30T16:04:02.794Z,1006.98
2018-08-30T16:05:04.203Z,1006.95
2018-08-30T16:06:05.497Z,1006.92
2018-08-30T16:07:06.872Z,1006.94
2018-08-30T16:08:08.220Z,1006.93
2018-08-30T16:09:09.633Z,1006.91
2018-08-30T16:10:11.062Z,1006.93
2018-08-30T16:11:12.504Z,1006.93
2018-08-30T16:12:17.543Z,1006.92
2018-08-30T16:13:19.781Z,1006.91
2018-08-30T16:14:21.235Z,1006.93
2018-08-30T16:15:22.618Z,1006.97
2018-08-30T16:16:24.048Z,1006.95
2018-08-30T16:17:25.433Z,1006.96
2018-08-30T16:18:26.847Z,1006.94
2018-08-30T16:19:28.202Z,1006.99
2018-08-30T16:20:30.198Z,1006.96
2018-08-30T16:21:31.593Z,1006.97
2018-08-30T16:22:32.998Z,1006.96
2018-08-30T16:23:34.355Z,1006.91
2018-08-30T16:24:35.843Z,1006.98
2018-08-30T16:25:37.172Z,1006.98
2018-08-30T16:26:38.618Z,1007.01
2018-08-30T16:27:39.925Z,1006.93
2018-08-30T16:28:41.382Z,1006.99
2018-08-30T16:29:42.668Z,1007.00
2018-08-30T16:30:44.098Z,1006.98
2018-08-30T16:31:45.480Z,1007.00
2018-08-30T16:32:46.876Z,1007.01
2018-08-30T16:33:48.268Z,1006.98
2018-08-30T16:34:49.664Z,1006.98
2018-08-30T16:35:51.063Z,1006.98
2018-08-30T16:36:52.477Z,1006.98
2018-08-30T16:37:53.875Z,1006.96
2018-08-30T16:38:57.107Z,1007.01
2018-08-30T16:39:58.566Z,1006.99
2018-08-30T16:41:08.435Z,1007.02
2018-08-30T16:42:10.402Z,1007.00
2018-08-30T16:43:11.829Z,1007.03
2018-08-30T16:44:13.177Z,1007.03
2018-08-30T16:45:14.576Z,1007.06
2018-08-30T16:46:17.310Z,1007.05
2018-08-30T16:47:18.832Z,1007.08
2018-08-30T16:48:20.130Z,1007.10
2018-08-30T16:49:21.493Z,1007.09
2018-08-30T16:50:22.884Z,1007.12
2018-08-30T16:51:25.216Z,1007.12
2018-08-30T16:52:25.627Z,1007.13
2018-08-30T16:53:27.032Z,1007.12
2018-08-30T16:54:28.386Z,1007.12
2018-08-30T16:55:29.796Z,1007.12
2018-08-30T16:56:31.116Z,1007.15
2018-08-30T16:57:35.752Z,1007.12
2018-08-30T16:58:37.126Z,1007.13
2018-08-30T16:59:39.298Z,1007.13
2018-08-30T17:00:40.711Z,1007.16
2018-08-30T17:01:42.144Z,1007.17
2018-08-30T17:02:43.542Z,1007.16
2018-08-30T17:03:44.959Z,1007.19
2018-08-30T17:04:46.351Z,1007.22
2018-08-30T17:05:47.773Z,1007.22
2018-08-30T17:06:49.148Z,1007.20
2018-08-30T17:07:54.653Z,1007.23
2018-08-30T17:08:56.699Z,1007.25
2018-08-30T17:09:58.074Z,1007.28
2018-08-30T17:10:59.421Z,1007.27
2018-08-30T17:12:00.845Z,1007.28
2018-08-30T17:13:02.234Z,1007.30
2018-08-30T17:14:03.598Z,1007.28
2018-08-30T17:15:04.966Z,1007.26
2018-08-30T17:16:07.164Z,1007.24
2018-08-30T17:17:08.580Z,1007.25
2018-08-30T17:18:09.886Z,1007.30
2018-08-30T17:19:11.282Z,1007.29
2018-08-30T17:20:13.630Z,1007.28
2018-08-30T17:21:15.122Z,1007.29
2018-08-30T17:22:16.447Z,1007.29
2018-08-30T17:23:18.705Z,1007.23
2018-08-30T17:24:20.240Z,1007.30
2018-08-30T17:25:21.604Z,1007.31
2018-08-30T17:26:23.835Z,1007.33
2018-08-30T17:27:25.837Z,1007.35
2018-08-30T17:28:27.268Z,1007.40
2018-08-30T17:29:29.190Z,1007.38
2018-08-30T17:30:31.092Z,1007.43
2018-08-30T17:31:32.576Z,1007.41
2018-08-30T17:32:33.875Z,1007.44
2018-08-30T17:33:36.834Z,1007.44
2018-08-30T17:34:38.258Z,1007.41
2018-08-30T17:35:39.633Z,1007.45
2018-08-30T17:36:40.980Z,1007.42
2018-08-30T17:37:42.826Z,1007.39
2018-08-30T17:38:44.208Z,1007.44
2018-08-30T17:39:45.678Z,1007.39
2018-08-30T17:40:48.823Z,1007.40
2018-08-30T17:41:50.825Z,1007.43
2018-08-30T17:42:53.151Z,1007.43
2018-08-30T17:43:55.914Z,1007.43
2018-08-30T17:44:57.430Z,1007.46
2018-08-30T17:45:58.852Z,1007.46
2018-08-30T17:47:00.287Z,1007.47
2018-08-30T17:48:01.708Z,1007.46
2018-08-30T17:49:03.126Z,1007.48
2018-08-30T17:50:04.576Z,1007.51
2018-08-30T17:51:06.913Z,1007.52
2018-08-30T17:52:08.297Z,1007.51
2018-08-30T17:53:10.246Z,1007.51
2018-08-30T17:54:11.081Z,1007.49
2018-08-30T17:55:13.296Z,1007.56
2018-08-30T17:56:14.680Z,1007.53
2018-08-30T17:57:16.080Z,1007.51
2018-08-30T17:58:17.494Z,1007.53
2018-08-30T17:59:18.888Z,1007.57
2018-08-30T18:00:20.329Z,1007.59
2018-08-30T18:01:22.937Z,1007.57
2018-08-30T18:02:24.089Z,1007.55
2018-08-30T18:03:26.416Z,1007.58
2018-08-30T18:04:27.778Z,1007.56
2018-08-30T18:05:29.272Z,1007.62
2018-08-30T18:06:30.645Z,1007.60
2018-08-30T18:07:32.042Z,1007.62
2018-08-30T18:08:34.954Z,1007.65
2018-08-30T18:09:37.073Z,1007.62
2018-08-30T18:10:47.824Z,1007.66
2018-08-30T18:11:50.636Z,1007.66
2018-08-30T18:12:55.033Z,1007.65
2018-08-30T18:13:57.088Z,1007.65
2018-08-30T18:14:58.556Z,1007.62
2018-08-30T18:16:02.347Z,1007.64
2018-08-30T18:17:04.469Z,1007.69
2018-08-30T18:18:07.412Z,1007.64
2018-08-30T18:19:08.791Z,1007.66
2018-08-30T18:20:10.973Z,1007.67
2018-08-30T18:21:13.331Z,1007.61
2018-08-30T18:22:17.286Z,1007.63
2018-08-30T18:23:18.713Z,1007.60
2018-08-30T18:24:20.814Z,1007.68
2018-08-30T18:25:23.332Z,1007.68
2018-08-30T18:26:24.874Z,1007.71
2018-08-30T18:27:26.549Z,1007.68
2018-08-30T18:28:28.926Z,1007.70
2018-08-30T18:29:31.207Z,1007.73
2018-08-30T18:30:33.694Z,1007.75
2018-08-30T18:31:37.428Z,1007.74
2018-08-30T18:32:38.871Z,1007.76
2018-08-30T18:33:40.363Z,1007.76
2018-08-30T18:34:42.043Z,1007.76
2018-08-30T18:35:44.419Z,1007.79
2018-08-30T18:36:46.532Z,1007.82
2018-08-30T18:37:48.662Z,1007.77
2018-08-30T18:38:51.714Z,1007.79
2018-08-30T18:39:54.087Z,1007.78
2018-08-30T18:40:56.163Z,1007.77
2018-08-30T18:41:57.565Z,1007.81
2018-08-30T18:42:59.755Z,1007.77
2018-08-30T18:44:01.858Z,1007.78
2018-08-30T18:45:03.322Z,1007.75
2018-08-30T18:46:05.446Z,1007.78
2018-08-30T18:47:08.596Z,1007.74
2018-08-30T18:48:11.854Z,1007.79
2018-08-30T18:49:13.303Z,1007.80
2018-08-30T18:50:15.807Z,1007.82
2018-08-30T18:51:17.982Z,1007.81
2018-08-30T18:52:19.504Z,1007.77
2018-08-30T18:53:20.979Z,1007.79
2018-08-30T18:54:23.127Z,1007.80
2018-08-30T18:55:24.630Z,1007.78
2018-08-30T18:56:27.750Z,1007.87
2018-08-30T18:57:30.544Z,1007.81
2018-08-30T18:58:32.067Z,1007.86
2018-08-30T18:59:34.905Z,1007.86
2018-08-30T19:00:36.952Z,1007.85
2018-08-30T19:01:39.155Z,1007.89
2018-08-30T19:02:41.761Z,1007.90
2018-08-30T19:03:42.484Z,1007.90
2018-08-30T19:04:45.144Z,1007.89
2018-08-30T19:05:47.366Z,1007.90
2018-08-30T19:06:48.792Z,1007.90
2018-08-30T19:07:50.348Z,1007.87
2018-08-30T19:08:52.680Z,1007.90
2018-08-30T19:09:54.172Z,1007.96
2018-08-30T19:10:57.749Z,1007.95
2018-08-30T19:11:59.746Z,1008.00
2018-08-30T19:13:01.227Z,1007.98
2018-08-30T19:14:04.274Z,1008.00
2018-08-30T19:15:06.643Z,1007.99
2018-08-30T19:16:08.141Z,1008.01
2018-08-30T19:17:11.084Z,1008.03
2018-08-30T19:18:12.563Z,1008.04
2018-08-30T19:19:15.371Z,1008.02
2018-08-30T19:20:16.764Z,1008.03
2018-08-30T19:21:18.826Z,1008.08
2018-08-30T19:22:20.228Z,1008.05
2018-08-30T19:23:22.731Z,1008.00
2018-08-30T19:24:28.389Z,1007.99
2018-08-30T19:25:32.362Z,1008.00
2018-08-30T19:26:35.557Z,1008.01
2018-08-30T19:27:37.070Z,1008.03
2018-08-30T19:28:39.256Z,1007.99
2018-08-30T19:29:41.521Z,1008.02
2018-08-30T19:30:44.270Z,1008.01
2018-08-30T19:31:45.112Z,1008.01
2018-08-30T19:32:46.859Z,1008.02
2018-08-30T19:33:49.266Z,1008.02
2018-08-30T19:34:50.891Z,1008.04
2018-08-30T19:35:53.044Z,1008.06
2018-08-30T19:36:55.367Z,1008.10
2018-08-30T19:37:58.292Z,1008.04
2018-08-30T19:39:00.237Z,1008.08
2018-08-30T19:40:02.804Z,1008.06
2018-08-30T19:41:05.770Z,1008.08
2018-08-30T19:42:06.239Z,1008.05
2018-08-30T19:43:07.660Z,1008.07
2018-08-30T19:44:10.021Z,1008.05
2018-08-30T19:45:11.459Z,1008.09
2018-08-30T19:46:15.863Z,1008.07
2018-08-30T19:47:19.784Z,1008.09
2018-08-30T19:48:21.762Z,1008.12
2018-08-30T19:49:24.092Z,1008.11
2018-08-30T19:50:25.519Z,1008.12
2018-08-30T19:51:26.989Z,1008.10
2018-08-30T19:52:28.499Z,1008.12
2018-08-30T19:53:29.945Z,1008.12
2018-08-30T19:54:31.478Z,1008.11
2018-08-30T19:55:34.411Z,1008.16
2018-08-30T19:56:36.691Z,1008.14
2018-08-30T19:57:38.133Z,1008.16
2018-08-30T19:58:40.169Z,1008.19
2018-08-30T19:59:44.150Z,1008.13
2018-08-30T20:00:46.806Z,1008.18
2018-08-30T20:01:48.273Z,1008.18
2018-08-30T20:02:49.712Z,1008.18
2018-08-30T20:03:51.880Z,1008.17
2018-08-30T20:04:53.390Z,1008.12
2018-08-30T20:05:54.844Z,1008.17
2018-08-30T20:06:56.255Z,1008.19
2018-08-30T20:07:59.047Z,1008.18
2018-08-30T20:09:00.476Z,1008.17
2018-08-30T20:10:02.011Z,1008.18
2018-08-30T20:11:04.366Z,1008.18
2018-08-30T20:12:06.289Z,1008.19
2018-08-30T20:13:07.834Z,1008.21
2018-08-30T20:14:12.228Z,1008.18
2018-08-30T20:15:14.407Z,1008.19
2018-08-30T20:16:15.794Z,1008.20
2018-08-30T20:17:17.199Z,1008.22
2018-08-30T20:18:19.450Z,1008.21
2018-08-30T20:19:20.866Z,1008.24
2018-08-30T20:20:23.942Z,1008.21
2018-08-30T20:21:25.336Z,1008.25
2018-08-30T20:22:27.435Z,1008.25
2018-08-30T20:23:28.852Z,1008.24
2018-08-30T20:24:30.276Z,1008.26
2018-08-30T20:25:31.717Z,1008.30
2018-08-30T20:26:33.929Z,1008.26
2018-08-30T20:27:35.326Z,1008.31
2018-08-30T20:28:37.518Z,1008.26
2018-08-30T20:29:38.929Z,1008.32
2018-08-30T20:30:40.474Z,1008.38
2018-08-30T20:31:41.902Z,1008.43
2018-08-30T20:32:44.237Z,1008.41
2018-08-30T20:33:45.636Z,1008.44
2018-08-30T20:34:47.047Z,1008.45
2018-08-30T20:35:48.514Z,1008.50
2018-08-30T20:36:49.975Z,1008.50
2018-08-30T20:37:51.986Z,1008.50
2018-08-30T20:38:53.378Z,1008.50
2018-08-30T20:39:54.847Z,1008.48
2018-08-30T20:40:56.314Z,1008.52
2018-08-30T20:41:57.947Z,1008.54
2018-08-30T20:43:00.597Z,1008.46
2018-08-30T20:44:03.214Z,1008.52
2018-08-30T20:45:04.614Z,1008.55
2018-08-30T20:46:06.568Z,1008.53
2018-08-30T20:47:08.297Z,1008.56
2018-08-30T20:48:09.677Z,1008.58
2018-08-30T20:49:11.079Z,1008.57
2018-08-30T20:50:12.471Z,1008.57
2018-08-30T20:51:13.894Z,1008.55
2018-08-30T20:52:15.284Z,1008.57
2018-08-30T20:53:16.698Z,1008.57
2018-08-30T20:54:18.102Z,1008.58
2018-08-30T20:55:19.496Z,1008.62
2018-08-30T20:56:20.879Z,1008.57
2018-08-30T20:57:22.285Z,1008.59
2018-08-30T20:58:23.680Z,1008.59
2018-08-30T20:59:25.070Z,1008.60
2018-08-30T21:00:26.513Z,1008.58
2018-08-30T21:01:27.854Z,1008.60
2018-08-30T21:02:29.251Z,1008.64
2018-08-30T21:03:30.650Z,1008.59
2018-08-30T21:04:32.026Z,1008.66
2018-08-30T21:05:33.430Z,1008.62
2018-08-30T21:06:34.828Z,1008.63
2018-08-30T21:07:36.213Z,1008.58
2018-08-30T21:08:37.604Z,1008.64
2018-08-30T21:09:38.986Z,1008.61
2018-08-30T21:10:40.380Z,1008.58
2018-08-30T21:11:41.778Z,1008.62
2018-08-30T21:12:43.173Z,1008.60
2018-08-30T21:13:44.670Z,1008.58
2018-08-30T21:14:46.057Z,1008.60
2018-08-30T21:15:48.243Z,1008.56
2018-08-30T21:16:50.078Z,1008.60
2018-08-30T21:17:51.507Z,1008.58
2018-08-30T21:18:52.897Z,1008.59
2018-08-30T21:19:54.288Z,1008.58
2018-08-30T21:20:55.858Z,1008.61
2018-08-30T21:21:57.191Z,1008.59
2018-08-30T21:22:58.574Z,1008.63
2018-08-30T21:23:59.963Z,1008.61
2018-08-30T21:25:01.429Z,1008.64
2018-08-30T21:26:02.821Z,1008.68
2018-08-30T21:27:04.204Z,1008.68
2018-08-30T21:28:05.562Z,1008.64
2018-08-30T21:29:07.574Z,1008.65
2018-08-30T21:30:09.137Z,1008.69
2018-08-30T21:31:10.527Z,1008.72
2018-08-30T21:32:11.982Z,1008.68
2018-08-30T21:33:13.359Z,1008.68
2018-08-30T21:34:14.757Z,1008.73